sensor_id;sensor_type;location;lat;lon;timestamp;pressure;altitude;pressure_sealevel;temperature;humidity
56176;BME280;63065;51.082;17.016;2023-01-27T00:00:19;100633.80;;;2.08;55.07
56176;BME280;63065;51.082;17.016;2023-01-27T00:02:45;100636.22;;;2.44;54.03
56176;BME280;63065;51.082;17.016;2023-01-27T00:05:11;100635.69;;;2.44;54.21
56176;BME280;63065;51.082;17.016;2023-01-27T00:07:35;100632.42;;;2.49;54.12
56176;BME280;63065;51.082;17.016;2023-01-27T00:10:01;100629.52;;;2.13;54.06
56176;BME280;63065;51.082;17.016;2023-01-27T00:12:26;100626.04;;;2.20;54.35
56176;BME280;63065;51.082;17.016;2023-01-27T00:14:51;100626.87;;;2.13;54.42
56176;BME280;63065;51.082;17.016;2023-01-27T00:17:17;100626.70;;;2.27;54.50
56176;BME280;63065;51.082;17.016;2023-01-27T00:19:42;100627.64;;;1.58;54.90
56176;BME280;63065;51.082;17.016;2023-01-27T00:22:08;100625.55;;;2.45;54.75
56176;BME280;63065;51.082;17.016;2023-01-27T00:24:32;100625.93;;;2.25;54.16
56176;BME280;63065;51.082;17.016;2023-01-27T00:26:58;100625.07;;;2.26;53.85
56176;BME280;63065;51.082;17.016;2023-01-27T00:29:23;100626.69;;;2.19;54.41
56176;BME280;63065;51.082;17.016;2023-01-27T00:31:49;100629.09;;;2.75;53.33
56176;BME280;63065;51.082;17.016;2023-01-27T00:34:14;100628.10;;;2.24;54.23
56176;BME280;63065;51.082;17.016;2023-01-27T00:36:41;100628.68;;;2.31;54.37
56176;BME280;63065;51.082;17.016;2023-01-27T00:39:07;100632.73;;;2.41;54.40
56176;BME280;63065;51.082;17.016;2023-01-27T00:41:31;100635.65;;;2.58;54.12
56176;BME280;63065;51.082;17.016;2023-01-27T00:43:57;100640.80;;;2.91;53.16
56176;BME280;63065;51.082;17.016;2023-01-27T00:46:23;100644.73;;;2.76;53.71
56176;BME280;63065;51.082;17.016;2023-01-27T00:48:49;100645.30;;;2.86;53.42
56176;BME280;63065;51.082;17.016;2023-01-27T00:51:14;100644.64;;;2.73;53.69
56176;BME280;63065;51.082;17.016;2023-01-27T00:53:38;100644.95;;;2.62;53.50
56176;BME280;63065;51.082;17.016;2023-01-27T00:56:04;100645.97;;;2.38;53.30
56176;BME280;63065;51.082;17.016;2023-01-27T00:58:30;100646.81;;;2.75;53.48
56176;BME280;63065;51.082;17.016;2023-01-27T01:00:55;100651.27;;;2.55;53.75
56176;BME280;63065;51.082;17.016;2023-01-27T01:03:20;100655.13;;;2.66;53.21
56176;BME280;63065;51.082;17.016;2023-01-27T01:05:45;100655.01;;;2.48;53.53
56176;BME280;63065;51.082;17.016;2023-01-27T01:08:10;100656.63;;;2.86;52.87
56176;BME280;63065;51.082;17.016;2023-01-27T01:10:36;100657.23;;;2.52;53.43
56176;BME280;63065;51.082;17.016;2023-01-27T01:13:02;100655.77;;;2.72;52.95
56176;BME280;63065;51.082;17.016;2023-01-27T01:15:38;100657.07;;;2.30;53.82
56176;BME280;63065;51.082;17.016;2023-01-27T01:17:59;100655.19;;;2.26;53.97
56176;BME280;63065;51.082;17.016;2023-01-27T01:20:18;100650.07;;;2.29;54.07
56176;BME280;63065;51.082;17.016;2023-01-27T01:22:44;100647.74;;;2.40;53.51
56176;BME280;63065;51.082;17.016;2023-01-27T01:25:10;100643.20;;;2.00;54.12
56176;BME280;63065;51.082;17.016;2023-01-27T01:27:44;100644.09;;;2.28;54.08
56176;BME280;63065;51.082;17.016;2023-01-27T01:30:01;100642.37;;;2.38;53.83
56176;BME280;63065;51.082;17.016;2023-01-27T01:32:27;100642.50;;;2.31;53.44
56176;BME280;63065;51.082;17.016;2023-01-27T01:34:52;100643.62;;;2.26;53.96
56176;BME280;63065;51.082;17.016;2023-01-27T01:37:17;100643.63;;;2.45;53.96
56176;BME280;63065;51.082;17.016;2023-01-27T01:39:48;100641.47;;;2.42;53.92
56176;BME280;63065;51.082;17.016;2023-01-27T01:42:09;100641.51;;;2.52;54.06
56176;BME280;63065;51.082;17.016;2023-01-27T01:44:34;100641.53;;;2.32;53.46
56176;BME280;63065;51.082;17.016;2023-01-27T01:47:00;100642.40;;;2.35;53.82
56176;BME280;63065;51.082;17.016;2023-01-27T01:49:36;100643.30;;;2.55;53.19
56176;BME280;63065;51.082;17.016;2023-01-27T01:51:53;100640.74;;;2.70;53.56
56176;BME280;63065;51.082;17.016;2023-01-27T01:54:18;100641.40;;;2.44;53.38
56176;BME280;63065;51.082;17.016;2023-01-27T01:56:45;100638.28;;;2.61;53.69
56176;BME280;63065;51.082;17.016;2023-01-27T01:59:12;100639.20;;;2.09;53.80
56176;BME280;63065;51.082;17.016;2023-01-27T02:01:32;100639.97;;;2.49;53.84
56176;BME280;63065;51.082;17.016;2023-01-27T02:04:01;100643.98;;;2.30;53.87
56176;BME280;63065;51.082;17.016;2023-01-27T02:06:24;100645.57;;;2.33;53.31
56176;BME280;63065;51.082;17.016;2023-01-27T02:08:50;100646.98;;;2.58;53.30
56176;BME280;63065;51.082;17.016;2023-01-27T02:11:14;100646.67;;;2.14;53.42
56176;BME280;63065;51.082;17.016;2023-01-27T02:13:41;100649.69;;;2.57;53.42
56176;BME280;63065;51.082;17.016;2023-01-27T02:16:07;100649.96;;;2.31;54.05
56176;BME280;63065;51.082;17.016;2023-01-27T02:18:32;100646.23;;;2.21;54.01
56176;BME280;63065;51.082;17.016;2023-01-27T02:20:57;100649.38;;;2.43;54.09
56176;BME280;63065;51.082;17.016;2023-01-27T02:23:32;100648.27;;;2.41;54.13
56176;BME280;63065;51.082;17.016;2023-01-27T02:25:51;100648.29;;;2.51;53.66
56176;BME280;63065;51.082;17.016;2023-01-27T02:28:18;100648.70;;;2.40;54.13
56176;BME280;63065;51.082;17.016;2023-01-27T02:30:38;100647.61;;;2.41;54.45
56176;BME280;63065;51.082;17.016;2023-01-27T02:33:09;100650.32;;;2.18;54.04
56176;BME280;63065;51.082;17.016;2023-01-27T02:35:34;100651.70;;;2.46;54.22
56176;BME280;63065;51.082;17.016;2023-01-27T02:37:56;100650.48;;;2.34;54.32
56176;BME280;63065;51.082;17.016;2023-01-27T02:40:21;100651.95;;;2.29;54.10
56176;BME280;63065;51.082;17.016;2023-01-27T02:42:46;100653.19;;;2.45;54.16
56176;BME280;63065;51.082;17.016;2023-01-27T02:45:12;100650.95;;;2.52;53.96
56176;BME280;63065;51.082;17.016;2023-01-27T02:47:37;100649.31;;;2.51;54.04
56176;BME280;63065;51.082;17.016;2023-01-27T02:50:03;100649.96;;;2.16;54.17
56176;BME280;63065;51.082;17.016;2023-01-27T02:52:29;100648.50;;;2.13;54.50
56176;BME280;63065;51.082;17.016;2023-01-27T02:54:54;100646.46;;;2.27;54.07
56176;BME280;63065;51.082;17.016;2023-01-27T02:57:20;100647.70;;;2.18;54.57
56176;BME280;63065;51.082;17.016;2023-01-27T02:59:45;100648.30;;;2.36;54.09
56176;BME280;63065;51.082;17.016;2023-01-27T03:02:16;100649.42;;;2.49;54.35
56176;BME280;63065;51.082;17.016;2023-01-27T03:04:37;100650.98;;;2.60;54.05
56176;BME280;63065;51.082;17.016;2023-01-27T03:07:02;100651.49;;;2.25;54.21
56176;BME280;63065;51.082;17.016;2023-01-27T03:09:28;100652.25;;;2.29;54.33
56176;BME280;63065;51.082;17.016;2023-01-27T03:11:53;100653.14;;;2.27;54.19
56176;BME280;63065;51.082;17.016;2023-01-27T03:14:18;100653.88;;;2.54;54.41
56176;BME280;63065;51.082;17.016;2023-01-27T03:16:44;100651.95;;;2.36;54.41
56176;BME280;63065;51.082;17.016;2023-01-27T03:19:10;100651.86;;;2.32;54.68
56176;BME280;63065;51.082;17.016;2023-01-27T03:21:35;100649.05;;;2.29;55.31
56176;BME280;63065;51.082;17.016;2023-01-27T03:24:02;100647.03;;;2.35;54.89
56176;BME280;63065;51.082;17.016;2023-01-27T03:26:26;100649.97;;;2.21;54.84
56176;BME280;63065;51.082;17.016;2023-01-27T03:28:51;100652.30;;;1.96;54.82
56176;BME280;63065;51.082;17.016;2023-01-27T03:31:17;100649.70;;;2.25;55.10
56176;BME280;63065;51.082;17.016;2023-01-27T03:33:43;100646.01;;;2.49;54.81
56176;BME280;63065;51.082;17.016;2023-01-27T03:36:09;100646.42;;;2.76;54.79
56176;BME280;63065;51.082;17.016;2023-01-27T03:38:34;100644.01;;;2.61;54.77
56176;BME280;63065;51.082;17.016;2023-01-27T03:41:02;100644.98;;;2.77;54.54
56176;BME280;63065;51.082;17.016;2023-01-27T03:43:25;100648.36;;;2.32;55.54
56176;BME280;63065;51.082;17.016;2023-01-27T03:45:50;100648.54;;;1.96;55.73
56176;BME280;63065;51.082;17.016;2023-01-27T03:48:16;100647.26;;;2.36;55.49
56176;BME280;63065;51.082;17.016;2023-01-27T03:50:42;100643.67;;;2.30;55.62
56176;BME280;63065;51.082;17.016;2023-01-27T03:53:07;100644.00;;;2.09;55.66
56176;BME280;63065;51.082;17.016;2023-01-27T03:55:34;100647.74;;;2.47;54.68
56176;BME280;63065;51.082;17.016;2023-01-27T03:57:59;100649.40;;;2.36;55.19
56176;BME280;63065;51.082;17.016;2023-01-27T04:00:24;100649.74;;;2.27;55.33
56176;BME280;63065;51.082;17.016;2023-01-27T04:02:49;100647.17;;;2.53;55.41
56176;BME280;63065;51.082;17.016;2023-01-27T04:05:15;100647.01;;;2.59;55.19
56176;BME280;63065;51.082;17.016;2023-01-27T04:07:40;100646.40;;;2.55;55.04
56176;BME280;63065;51.082;17.016;2023-01-27T04:10:06;100643.09;;;2.46;55.42
56176;BME280;63065;51.082;17.016;2023-01-27T04:12:31;100644.32;;;2.55;54.93
56176;BME280;63065;51.082;17.016;2023-01-27T04:14:56;100643.10;;;2.31;54.39
56176;BME280;63065;51.082;17.016;2023-01-27T04:17:22;100646.27;;;2.34;55.39
56176;BME280;63065;51.082;17.016;2023-01-27T04:19:47;100649.60;;;2.18;55.47
56176;BME280;63065;51.082;17.016;2023-01-27T04:22:16;100649.65;;;2.23;55.71
56176;BME280;63065;51.082;17.016;2023-01-27T04:24:38;100651.34;;;2.28;55.42
56176;BME280;63065;51.082;17.016;2023-01-27T04:27:10;100654.55;;;2.01;56.54
56176;BME280;63065;51.082;17.016;2023-01-27T04:29:31;100657.36;;;2.08;56.04
56176;BME280;63065;51.082;17.016;2023-01-27T04:31:56;100656.84;;;1.74;57.19
56176;BME280;63065;51.082;17.016;2023-01-27T04:34:20;100656.78;;;1.58;56.23
56176;BME280;63065;51.082;17.016;2023-01-27T04:36:46;100657.73;;;2.20;56.04
56176;BME280;63065;51.082;17.016;2023-01-27T04:39:11;100655.90;;;2.08;55.64
56176;BME280;63065;51.082;17.016;2023-01-27T04:41:41;100660.22;;;1.74;55.87
56176;BME280;63065;51.082;17.016;2023-01-27T04:44:03;100659.43;;;1.76;55.91
56176;BME280;63065;51.082;17.016;2023-01-27T04:46:26;100657.43;;;1.94;55.42
56176;BME280;63065;51.082;17.016;2023-01-27T04:48:52;100656.56;;;1.52;56.93
56176;BME280;63065;51.082;17.016;2023-01-27T04:51:17;100660.22;;;1.87;56.26
56176;BME280;63065;51.082;17.016;2023-01-27T04:53:43;100660.46;;;2.10;55.97
56176;BME280;63065;51.082;17.016;2023-01-27T04:56:20;100660.75;;;1.80;56.29
56176;BME280;63065;51.082;17.016;2023-01-27T04:58:34;100658.75;;;2.01;55.65
56176;BME280;63065;51.082;17.016;2023-01-27T05:00:59;100657.69;;;1.79;56.37
56176;BME280;63065;51.082;17.016;2023-01-27T05:03:24;100661.07;;;1.88;56.29
56176;BME280;63065;51.082;17.016;2023-01-27T05:05:50;100659.20;;;1.84;56.47
56176;BME280;63065;51.082;17.016;2023-01-27T05:08:15;100662.66;;;1.95;55.78
56176;BME280;63065;51.082;17.016;2023-01-27T05:10:42;100666.46;;;1.72;55.51
56176;BME280;63065;51.082;17.016;2023-01-27T05:13:05;100667.50;;;1.74;56.08
56176;BME280;63065;51.082;17.016;2023-01-27T05:15:31;100672.36;;;1.49;56.88
56176;BME280;63065;51.082;17.016;2023-01-27T05:17:57;100671.51;;;1.51;56.41
56176;BME280;63065;51.082;17.016;2023-01-27T05:20:22;100678.00;;;1.91;56.27
56176;BME280;63065;51.082;17.016;2023-01-27T05:22:50;100678.83;;;2.14;56.36
56176;BME280;63065;51.082;17.016;2023-01-27T05:25:13;100684.07;;;1.88;56.36
56176;BME280;63065;51.082;17.016;2023-01-27T05:27:44;100687.86;;;2.07;56.05
56176;BME280;63065;51.082;17.016;2023-01-27T05:30:06;100691.81;;;1.99;56.06
56176;BME280;63065;51.082;17.016;2023-01-27T05:32:30;100694.10;;;1.88;57.46
56176;BME280;63065;51.082;17.016;2023-01-27T05:34:56;100694.41;;;1.47;57.50
56176;BME280;63065;51.082;17.016;2023-01-27T05:37:21;100696.42;;;1.35;57.33
56176;BME280;63065;51.082;17.016;2023-01-27T05:39:46;100693.77;;;1.51;57.59
56176;BME280;63065;51.082;17.016;2023-01-27T05:42:11;100693.18;;;1.50;57.91
56176;BME280;63065;51.082;17.016;2023-01-27T05:44:37;100694.72;;;1.85;57.01
56176;BME280;63065;51.082;17.016;2023-01-27T05:47:02;100692.59;;;1.73;56.47
56176;BME280;63065;51.082;17.016;2023-01-27T05:49:28;100695.87;;;1.86;55.76
56176;BME280;63065;51.082;17.016;2023-01-27T05:51:53;100701.53;;;1.82;56.38
56176;BME280;63065;51.082;17.016;2023-01-27T05:54:19;100701.79;;;1.52;57.14
56176;BME280;63065;51.082;17.016;2023-01-27T05:56:44;100699.58;;;1.87;56.32
56176;BME280;63065;51.082;17.016;2023-01-27T05:59:10;100699.16;;;1.88;56.25
56176;BME280;63065;51.082;17.016;2023-01-27T06:01:36;100704.11;;;2.26;55.92
56176;BME280;63065;51.082;17.016;2023-01-27T06:04:02;100705.81;;;1.81;56.07
56176;BME280;63065;51.082;17.016;2023-01-27T06:06:28;100708.13;;;1.95;55.97
56176;BME280;63065;51.082;17.016;2023-01-27T06:08:52;100711.01;;;2.04;56.48
56176;BME280;63065;51.082;17.016;2023-01-27T06:11:19;100710.67;;;2.01;56.31
56176;BME280;63065;51.082;17.016;2023-01-27T06:13:43;100715.20;;;1.82;55.95
56176;BME280;63065;51.082;17.016;2023-01-27T06:16:09;100717.39;;;2.13;55.08
56176;BME280;63065;51.082;17.016;2023-01-27T06:18:34;100719.80;;;1.66;57.05
56176;BME280;63065;51.082;17.016;2023-01-27T06:21:06;100721.84;;;2.10;56.62
56176;BME280;63065;51.082;17.016;2023-01-27T06:23:24;100722.46;;;1.82;56.50
56176;BME280;63065;51.082;17.016;2023-01-27T06:25:50;100722.47;;;2.15;56.27
56176;BME280;63065;51.082;17.016;2023-01-27T06:28:16;100725.04;;;2.28;55.67
56176;BME280;63065;51.082;17.016;2023-01-27T06:30:42;100726.80;;;1.67;56.31
56176;BME280;63065;51.082;17.016;2023-01-27T06:33:07;100727.57;;;1.92;56.35
56176;BME280;63065;51.082;17.016;2023-01-27T06:35:33;100726.86;;;1.93;56.87
56176;BME280;63065;51.082;17.016;2023-01-27T06:37:58;100731.99;;;1.73;55.80
56176;BME280;63065;51.082;17.016;2023-01-27T06:40:23;100732.59;;;1.63;56.21
56176;BME280;63065;51.082;17.016;2023-01-27T06:42:48;100734.93;;;1.95;56.31
56176;BME280;63065;51.082;17.016;2023-01-27T06:45:14;100736.36;;;1.78;56.38
56176;BME280;63065;51.082;17.016;2023-01-27T06:47:44;100736.93;;;2.15;56.27
56176;BME280;63065;51.082;17.016;2023-01-27T06:50:06;100737.67;;;1.95;56.10
56176;BME280;63065;51.082;17.016;2023-01-27T06:52:30;100736.05;;;2.31;56.11
56176;BME280;63065;51.082;17.016;2023-01-27T06:54:56;100734.84;;;2.15;55.50
56176;BME280;63065;51.082;17.016;2023-01-27T06:57:21;100735.10;;;2.06;55.62
56176;BME280;63065;51.082;17.016;2023-01-27T06:59:47;100735.56;;;1.60;56.91
56176;BME280;63065;51.082;17.016;2023-01-27T07:02:12;100735.21;;;2.06;56.95
56176;BME280;63065;51.082;17.016;2023-01-27T07:04:38;100736.56;;;0.99;57.61
56176;BME280;63065;51.082;17.016;2023-01-27T07:07:04;100735.35;;;1.18;58.28
56176;BME280;63065;51.082;17.016;2023-01-27T07:09:29;100734.74;;;1.48;58.02
56176;BME280;63065;51.082;17.016;2023-01-27T07:11:54;100735.01;;;1.84;57.99
56176;BME280;63065;51.082;17.016;2023-01-27T07:14:20;100740.16;;;1.98;57.30
56176;BME280;63065;51.082;17.016;2023-01-27T07:16:45;100739.30;;;1.22;56.99
56176;BME280;63065;51.082;17.016;2023-01-27T07:19:10;100736.80;;;1.63;57.77
56176;BME280;63065;51.082;17.016;2023-01-27T07:21:36;100736.40;;;0.86;59.78
56176;BME280;63065;51.082;17.016;2023-01-27T07:24:01;100737.66;;;1.25;58.85
56176;BME280;63065;51.082;17.016;2023-01-27T07:26:26;100742.62;;;1.76;57.92
56176;BME280;63065;51.082;17.016;2023-01-27T07:28:53;100746.30;;;1.95;57.41
56176;BME280;63065;51.082;17.016;2023-01-27T07:31:17;100749.81;;;1.68;57.14
56176;BME280;63065;51.082;17.016;2023-01-27T07:33:43;100748.01;;;2.11;56.66
56176;BME280;63065;51.082;17.016;2023-01-27T07:36:08;100749.21;;;1.37;58.49
56176;BME280;63065;51.082;17.016;2023-01-27T07:38:33;100750.06;;;1.46;57.98
56176;BME280;63065;51.082;17.016;2023-01-27T07:41:02;100753.40;;;1.62;57.59
56176;BME280;63065;51.082;17.016;2023-01-27T07:43:24;100758.35;;;2.04;57.31
56176;BME280;63065;51.082;17.016;2023-01-27T07:45:52;100762.99;;;2.07;56.80
56176;BME280;63065;51.082;17.016;2023-01-27T07:48:15;100762.40;;;2.00;56.67
56176;BME280;63065;51.082;17.016;2023-01-27T07:50:40;100756.87;;;2.26;56.60
56176;BME280;63065;51.082;17.016;2023-01-27T07:53:06;100756.40;;;2.31;56.06
56176;BME280;63065;51.082;17.016;2023-01-27T07:55:32;100754.86;;;2.00;56.23
56176;BME280;63065;51.082;17.016;2023-01-27T07:57:58;100753.53;;;2.57;56.32
56176;BME280;63065;51.082;17.016;2023-01-27T08:00:34;100753.40;;;2.35;55.93
56176;BME280;63065;51.082;17.016;2023-01-27T08:02:50;100757.54;;;2.43;56.08
56176;BME280;63065;51.082;17.016;2023-01-27T08:05:14;100755.30;;;2.12;55.71
56176;BME280;63065;51.082;17.016;2023-01-27T08:07:40;100756.12;;;2.72;55.38
56176;BME280;63065;51.082;17.016;2023-01-27T08:10:05;100757.09;;;2.31;54.86
56176;BME280;63065;51.082;17.016;2023-01-27T08:12:30;100755.40;;;2.22;55.89
56176;BME280;63065;51.082;17.016;2023-01-27T08:14:55;100756.66;;;2.08;55.29
56176;BME280;63065;51.082;17.016;2023-01-27T08:17:21;100761.73;;;2.10;56.20
56176;BME280;63065;51.082;17.016;2023-01-27T08:19:46;100759.33;;;2.37;56.11
56176;BME280;63065;51.082;17.016;2023-01-27T08:22:11;100759.11;;;2.73;56.20
56176;BME280;63065;51.082;17.016;2023-01-27T08:24:37;100760.25;;;2.36;55.36
56176;BME280;63065;51.082;17.016;2023-01-27T08:27:02;100764.67;;;2.56;54.93
56176;BME280;63065;51.082;17.016;2023-01-27T08:29:27;100766.42;;;2.59;55.09
56176;BME280;63065;51.082;17.016;2023-01-27T08:31:53;100763.88;;;2.24;55.65
56176;BME280;63065;51.082;17.016;2023-01-27T08:34:19;100767.25;;;2.23;55.77
56176;BME280;63065;51.082;17.016;2023-01-27T08:36:44;100769.98;;;2.35;55.79
56176;BME280;63065;51.082;17.016;2023-01-27T08:39:10;100771.65;;;2.48;55.62
56176;BME280;63065;51.082;17.016;2023-01-27T08:41:35;100775.86;;;2.32;55.80
56176;BME280;63065;51.082;17.016;2023-01-27T08:44:00;100774.30;;;2.43;55.05
56176;BME280;63065;51.082;17.016;2023-01-27T08:46:25;100780.99;;;2.36;55.73
56176;BME280;63065;51.082;17.016;2023-01-27T08:48:50;100780.28;;;2.32;55.67
56176;BME280;63065;51.082;17.016;2023-01-27T08:51:16;100781.76;;;2.42;55.30
56176;BME280;63065;51.082;17.016;2023-01-27T08:53:42;100785.83;;;2.43;55.34
56176;BME280;63065;51.082;17.016;2023-01-27T08:56:11;100788.75;;;2.57;55.23
56176;BME280;63065;51.082;17.016;2023-01-27T08:58:34;100786.17;;;2.41;55.51
56176;BME280;63065;51.082;17.016;2023-01-27T09:00:59;100783.85;;;2.58;55.12
56176;BME280;63065;51.082;17.016;2023-01-27T09:03:24;100781.04;;;2.95;54.51
56176;BME280;63065;51.082;17.016;2023-01-27T09:05:49;100781.47;;;2.79;54.72
56176;BME280;63065;51.082;17.016;2023-01-27T09:08:14;100784.89;;;2.74;55.07
56176;BME280;63065;51.082;17.016;2023-01-27T09:10:44;100790.04;;;2.76;55.24
56176;BME280;63065;51.082;17.016;2023-01-27T09:13:05;100790.02;;;2.19;55.52
56176;BME280;63065;51.082;17.016;2023-01-27T09:15:30;100793.07;;;2.79;54.98
56176;BME280;63065;51.082;17.016;2023-01-27T09:17:55;100795.68;;;2.85;54.65
56176;BME280;63065;51.082;17.016;2023-01-27T09:20:21;100797.16;;;2.83;54.96
56176;BME280;63065;51.082;17.016;2023-01-27T09:22:47;100800.29;;;2.89;54.35
56176;BME280;63065;51.082;17.016;2023-01-27T09:25:14;100803.20;;;2.41;55.42
56176;BME280;63065;51.082;17.016;2023-01-27T09:27:43;100804.88;;;2.57;55.45
56176;BME280;63065;51.082;17.016;2023-01-27T09:30:06;100809.22;;;2.37;55.05
56176;BME280;63065;51.082;17.016;2023-01-27T09:32:30;100809.55;;;2.80;55.34
56176;BME280;63065;51.082;17.016;2023-01-27T09:34:55;100816.72;;;2.57;55.11
56176;BME280;63065;51.082;17.016;2023-01-27T09:37:21;100819.27;;;2.61;55.16
56176;BME280;63065;51.082;17.016;2023-01-27T09:39:47;100819.99;;;2.60;54.45
56176;BME280;63065;51.082;17.016;2023-01-27T09:44:52;100818.35;;;2.68;54.60
56176;BME280;63065;51.082;17.016;2023-01-27T09:47:14;100823.01;;;2.71;55.17
56176;BME280;63065;51.082;17.016;2023-01-27T09:49:38;100825.36;;;2.77;54.33
56176;BME280;63065;51.082;17.016;2023-01-27T09:52:03;100823.34;;;2.53;54.85
56176;BME280;63065;51.082;17.016;2023-01-27T09:54:34;100823.68;;;2.91;54.87
56176;BME280;63065;51.082;17.016;2023-01-27T09:56:51;100820.98;;;2.81;54.66
56176;BME280;63065;51.082;17.016;2023-01-27T09:59:21;100817.44;;;3.02;54.35
56176;BME280;63065;51.082;17.016;2023-01-27T10:01:41;100821.68;;;2.44;54.87
56176;BME280;63065;51.082;17.016;2023-01-27T10:04:13;100817.16;;;2.80;55.47
56176;BME280;63065;51.082;17.016;2023-01-27T10:06:34;100815.72;;;2.61;55.46
56176;BME280;63065;51.082;17.016;2023-01-27T10:09:02;100814.10;;;2.80;55.38
56176;BME280;63065;51.082;17.016;2023-01-27T10:11:18;100809.74;;;2.75;55.14
56176;BME280;63065;51.082;17.016;2023-01-27T10:13:49;100811.68;;;2.89;54.82
56176;BME280;63065;51.082;17.016;2023-01-27T10:16:23;100809.88;;;3.14;53.97
56176;BME280;63065;51.082;17.016;2023-01-27T10:18:44;100806.69;;;2.83;54.68
56176;BME280;63065;51.082;17.016;2023-01-27T10:21:02;100809.18;;;2.85;54.74
56176;BME280;63065;51.082;17.016;2023-01-27T10:23:32;100809.86;;;2.57;55.07
56176;BME280;63065;51.082;17.016;2023-01-27T10:25:54;100809.87;;;2.67;55.17
56176;BME280;63065;51.082;17.016;2023-01-27T10:28:14;100809.16;;;2.70;55.02
56176;BME280;63065;51.082;17.016;2023-01-27T10:30:42;100812.66;;;3.03;54.69
56176;BME280;63065;51.082;17.016;2023-01-27T10:33:11;100814.59;;;3.30;54.49
56176;BME280;63065;51.082;17.016;2023-01-27T10:35:34;100812.40;;;3.05;54.55
56176;BME280;63065;51.082;17.016;2023-01-27T10:38:03;100810.93;;;3.09;53.95
56176;BME280;63065;51.082;17.016;2023-01-27T10:40:26;100812.16;;;2.65;54.74
56176;BME280;63065;51.082;17.016;2023-01-27T10:42:52;100816.76;;;3.06;54.85
56176;BME280;63065;51.082;17.016;2023-01-27T10:45:18;100814.94;;;3.19;54.87
56176;BME280;63065;51.082;17.016;2023-01-27T10:47:49;100814.43;;;3.05;54.52
56176;BME280;63065;51.082;17.016;2023-01-27T10:50:06;100815.00;;;2.83;54.71
56176;BME280;63065;51.082;17.016;2023-01-27T10:52:30;100819.48;;;2.57;54.76
56176;BME280;63065;51.082;17.016;2023-01-27T10:54:56;100819.82;;;3.24;54.85
56176;BME280;63065;51.082;17.016;2023-01-27T10:57:20;100819.46;;;2.95;54.81
56176;BME280;63065;51.082;17.016;2023-01-27T10:59:49;100818.92;;;3.29;54.82
56176;BME280;63065;51.082;17.016;2023-01-27T11:02:14;100815.92;;;2.82;54.83
56176;BME280;63065;51.082;17.016;2023-01-27T11:04:38;100816.11;;;3.01;54.38
56176;BME280;63065;51.082;17.016;2023-01-27T11:07:01;100813.21;;;2.82;54.28
56176;BME280;63065;51.082;17.016;2023-01-27T11:09:29;100818.38;;;3.03;54.45
56176;BME280;63065;51.082;17.016;2023-01-27T11:11:52;100819.72;;;2.71;53.96
56176;BME280;63065;51.082;17.016;2023-01-27T11:14:22;100817.58;;;2.89;54.88
56176;BME280;63065;51.082;17.016;2023-01-27T11:16:45;100819.56;;;3.18;54.64
56176;BME280;63065;51.082;17.016;2023-01-27T11:19:15;100819.22;;;2.66;54.59
56176;BME280;63065;51.082;17.016;2023-01-27T11:21:32;100815.59;;;2.61;54.41
56176;BME280;63065;51.082;17.016;2023-01-27T11:24:03;100818.22;;;3.11;55.04
56176;BME280;63065;51.082;17.016;2023-01-27T11:26:29;100814.14;;;3.13;54.80
56176;BME280;63065;51.082;17.016;2023-01-27T11:28:54;100810.78;;;2.63;54.63
56176;BME280;63065;51.082;17.016;2023-01-27T11:31:21;100813.76;;;3.19;54.52
56176;BME280;63065;51.082;17.016;2023-01-27T11:33:49;100809.53;;;2.67;54.27
56176;BME280;63065;51.082;17.016;2023-01-27T11:36:06;100811.64;;;2.90;54.52
56176;BME280;63065;51.082;17.016;2023-01-27T11:38:30;100811.52;;;2.43;54.43
56176;BME280;63065;51.082;17.016;2023-01-27T11:40:55;100812.07;;;2.90;54.78
56176;BME280;63065;51.082;17.016;2023-01-27T11:43:27;100815.97;;;2.85;54.71
56176;BME280;63065;51.082;17.016;2023-01-27T11:45:47;100812.03;;;2.79;54.81
56176;BME280;63065;51.082;17.016;2023-01-27T11:48:15;100814.66;;;2.41;54.66
56176;BME280;63065;51.082;17.016;2023-01-27T11:50:37;100815.93;;;2.64;54.22
56176;BME280;63065;51.082;17.016;2023-01-27T11:53:10;100815.60;;;2.87;54.94
56176;BME280;63065;51.082;17.016;2023-01-27T11:55:34;100812.40;;;2.59;54.93
56176;BME280;63065;51.082;17.016;2023-01-27T11:57:59;100814.92;;;2.70;54.75
56176;BME280;63065;51.082;17.016;2023-01-27T12:00:22;100817.88;;;2.66;54.74
56176;BME280;63065;51.082;17.016;2023-01-27T12:02:48;100814.68;;;2.75;54.92
56176;BME280;63065;51.082;17.016;2023-01-27T12:05:11;100812.10;;;2.74;54.97
56176;BME280;63065;51.082;17.016;2023-01-27T12:07:43;100816.95;;;2.56;55.13
56176;BME280;63065;51.082;17.016;2023-01-27T12:10:01;100814.33;;;2.56;54.88
56176;BME280;63065;51.082;17.016;2023-01-27T12:12:27;100813.78;;;2.51;54.19
56176;BME280;63065;51.082;17.016;2023-01-27T12:14:53;100811.26;;;2.66;54.93
56176;BME280;63065;51.082;17.016;2023-01-27T12:17:22;100809.73;;;2.52;54.95
56176;BME280;63065;51.082;17.016;2023-01-27T12:19:42;100810.13;;;2.47;54.80
56176;BME280;63065;51.082;17.016;2023-01-27T12:22:12;100805.13;;;2.69;54.88
56176;BME280;63065;51.082;17.016;2023-01-27T12:24:35;100803.81;;;2.62;54.76
56176;BME280;63065;51.082;17.016;2023-01-27T12:27:00;100800.81;;;2.57;54.24
56176;BME280;63065;51.082;17.016;2023-01-27T12:29:29;100794.06;;;2.64;54.68
56176;BME280;63065;51.082;17.016;2023-01-27T12:31:53;100798.35;;;2.72;54.54
56176;BME280;63065;51.082;17.016;2023-01-27T12:34:23;100797.85;;;2.48;53.91
56176;BME280;63065;51.082;17.016;2023-01-27T12:36:42;100798.33;;;2.53;54.87
56176;BME280;63065;51.082;17.016;2023-01-27T12:41:34;100800.44;;;2.44;54.33
56176;BME280;63065;51.082;17.016;2023-01-27T12:44:06;100800.95;;;2.81;53.01